createdAt,value
2023-03-04T00:00:01.000Z,10.1
2023-03-04T00:01:31.000Z,11.8
2023-03-04T00:03:02.000Z,8
2023-03-04T00:04:32.000Z,10.9
2023-03-04T00:06:03.000Z,13.3
2023-03-04T00:07:33.000Z,13.3
2023-03-04T00:09:04.000Z,13
2023-03-04T00:10:21.000Z,16.6
2023-03-04T00:11:37.000Z,14.5
2023-03-04T00:13:08.000Z,11.3
2023-03-04T00:14:38.000Z,13.7
2023-03-04T00:16:09.000Z,10.2
2023-03-04T00:17:39.000Z,11.2
2023-03-04T00:19:10.000Z,13.5
2023-03-04T00:20:40.000Z,15.1
2023-03-04T00:22:11.000Z,11.5
2023-03-04T00:23:41.000Z,11
2023-03-04T00:25:12.000Z,10.6
2023-03-04T00:26:29.000Z,15.1
2023-03-04T00:27:46.000Z,11.2
2023-03-04T00:29:16.000Z,13.5
2023-03-04T00:30:47.000Z,16.3
2023-03-04T00:32:17.000Z,18.8
2023-03-04T00:33:48.000Z,13.4
2023-03-04T00:35:18.000Z,10.1
2023-03-04T00:36:49.000Z,12.1
2023-03-04T00:38:19.000Z,13.4
2023-03-04T00:39:50.000Z,11.7
2023-03-04T00:41:20.000Z,15.1
2023-03-04T00:42:37.000Z,12.9
2023-03-04T00:43:54.000Z,11.2
2023-03-04T00:45:25.000Z,14.1
2023-03-04T00:46:55.000Z,9.9
2023-03-04T00:48:26.000Z,14.5
2023-03-04T00:49:56.000Z,13.5
2023-03-04T00:51:27.000Z,13.3
2023-03-04T00:52:58.000Z,11.3
2023-03-04T00:54:28.000Z,11.2
2023-03-04T00:55:59.000Z,17.1
2023-03-04T00:57:29.000Z,13.7
2023-03-04T00:58:46.000Z,14.8
2023-03-04T01:00:03.000Z,10.3
2023-03-04T01:01:34.000Z,13
2023-03-04T01:03:04.000Z,18.1
2023-03-04T01:04:35.000Z,10
2023-03-04T01:06:05.000Z,11.7
2023-03-04T01:07:36.000Z,14.5
2023-03-04T01:09:06.000Z,14.9
2023-03-04T01:10:37.000Z,16.9
2023-03-04T01:12:07.000Z,13.2
2023-03-04T01:13:38.000Z,12.8
2023-03-04T01:14:55.000Z,15.4
2023-03-04T01:16:12.000Z,15
2023-03-04T01:17:42.000Z,14.5
2023-03-04T01:19:13.000Z,18.8
2023-03-04T01:20:43.000Z,11.7
2023-03-04T01:22:14.000Z,13.5
2023-03-04T01:23:44.000Z,14.8
2023-03-04T01:25:15.000Z,14
2023-03-04T01:26:45.000Z,13.3
2023-03-04T01:28:16.000Z,13
2023-03-04T01:29:46.000Z,13.8
2023-03-04T01:31:03.000Z,15.7
2023-03-04T01:32:20.000Z,18.1
2023-03-04T01:33:50.000Z,12.8
2023-03-04T01:35:21.000Z,13.6
2023-03-04T01:36:51.000Z,12.8
2023-03-04T01:38:22.000Z,12.8
2023-03-04T01:39:52.000Z,17.6
2023-03-04T01:41:23.000Z,13.6
2023-03-04T01:42:53.000Z,11.4
2023-03-04T01:44:24.000Z,14.4
2023-03-04T01:45:54.000Z,12.8
2023-03-04T01:47:11.000Z,13
2023-03-04T01:48:28.000Z,17.7
2023-03-04T01:49:59.000Z,13.3
2023-03-04T01:51:29.000Z,12
2023-03-04T01:53:00.000Z,14.1
2023-03-04T01:54:30.000Z,15.9
2023-03-04T01:56:01.000Z,13.2
2023-03-04T01:57:31.000Z,12.6
2023-03-04T01:59:02.000Z,15.6
2023-03-04T02:00:32.000Z,9.8
2023-03-04T02:02:03.000Z,12.6
2023-03-04T02:03:20.000Z,10.9
2023-03-04T02:04:37.000Z,13.4
2023-03-04T02:06:07.000Z,11.2
2023-03-04T02:07:38.000Z,12.4
2023-03-04T02:09:08.000Z,13
2023-03-04T02:10:39.000Z,13.6
2023-03-04T02:12:09.000Z,13.2
2023-03-04T02:13:40.000Z,14.7
2023-03-04T02:15:10.000Z,11.7
2023-03-04T02:16:41.000Z,12.6
2023-03-04T02:18:11.000Z,10.7
2023-03-04T02:19:28.000Z,9.4
2023-03-04T02:20:45.000Z,8.8
2023-03-04T02:22:16.000Z,14
2023-03-04T02:23:46.000Z,12.8
2023-03-04T02:25:17.000Z,10
2023-03-04T02:26:47.000Z,10
2023-03-04T02:28:18.000Z,10.5
2023-03-04T02:29:48.000Z,12.6
2023-03-04T02:31:19.000Z,10.5
2023-03-04T02:32:49.000Z,9.4
2023-03-04T02:34:20.000Z,8.7
2023-03-04T02:35:37.000Z,8.4
2023-03-04T02:36:54.000Z,7.4
2023-03-04T02:38:24.000Z,9.6
2023-03-04T02:39:55.000Z,10.9
2023-03-04T02:41:25.000Z,11.6
2023-03-04T02:42:56.000Z,12.3
2023-03-04T02:44:26.000Z,10.9
2023-03-04T02:45:57.000Z,12.3
2023-03-04T02:47:27.000Z,11.7
2023-03-04T02:48:58.000Z,8.5
2023-03-04T02:50:28.000Z,8
2023-03-04T02:51:45.000Z,13.8
2023-03-04T02:53:02.000Z,10.5
2023-03-04T02:54:33.000Z,9.4
2023-03-04T02:56:03.000Z,14.2
2023-03-04T02:57:34.000Z,11.7
2023-03-04T02:59:04.000Z,9
2023-03-04T03:00:35.000Z,10.2
2023-03-04T03:02:06.000Z,10.6
2023-03-04T03:03:36.000Z,10.1
2023-03-04T03:05:07.000Z,8.1
2023-03-04T03:06:37.000Z,10.1
2023-03-04T03:07:54.000Z,10.3
2023-03-04T03:09:11.000Z,9.3
2023-03-04T03:10:41.000Z,10.3
2023-03-04T03:12:12.000Z,10.3
2023-03-04T03:13:42.000Z,12.6
2023-03-04T03:15:13.000Z,8.2
2023-03-04T03:16:43.000Z,9.8
2023-03-04T03:18:14.000Z,11.3
2023-03-04T03:19:44.000Z,8.3
2023-03-04T03:21:15.000Z,7.3
2023-03-04T03:22:45.000Z,11
2023-03-04T03:24:02.000Z,10.1
2023-03-04T03:25:19.000Z,11.1
2023-03-04T03:26:50.000Z,10.2
2023-03-04T03:28:20.000Z,6.4
2023-03-04T03:29:51.000Z,12
2023-03-04T03:31:21.000Z,12.7
2023-03-04T03:32:52.000Z,8.4
2023-03-04T03:34:22.000Z,12.7
2023-03-04T03:35:53.000Z,9.3
2023-03-04T03:37:23.000Z,8.7
2023-03-04T03:38:54.000Z,8.8
2023-03-04T03:40:11.000Z,8.1
2023-03-04T03:41:28.000Z,7.2
2023-03-04T03:42:58.000Z,6.8
2023-03-04T03:44:29.000Z,6.6
2023-03-04T03:45:59.000Z,9.2
2023-03-04T03:47:30.000Z,9.9
2023-03-04T03:49:00.000Z,7.9
2023-03-04T03:50:31.000Z,10.4
2023-03-04T03:52:01.000Z,7
2023-03-04T03:53:32.000Z,9
2023-03-04T03:56:19.000Z,6.7
2023-03-04T03:57:36.000Z,8.5
2023-03-04T03:59:07.000Z,8.6
2023-03-04T04:00:37.000Z,11
2023-03-04T04:02:08.000Z,9
2023-03-04T04:03:38.000Z,9.8
2023-03-04T04:05:09.000Z,9.5
2023-03-04T04:06:39.000Z,9.8
2023-03-04T04:08:10.000Z,6
2023-03-04T04:09:40.000Z,8
2023-03-04T04:11:11.000Z,8.6
2023-03-04T04:12:28.000Z,9.4
2023-03-04T04:13:45.000Z,8.6
2023-03-04T04:15:15.000Z,5.2
2023-03-04T04:16:46.000Z,9
2023-03-04T04:18:16.000Z,10.2
2023-03-04T04:19:47.000Z,7.3
2023-03-04T04:21:17.000Z,7.6
2023-03-04T04:22:48.000Z,12
2023-03-04T04:24:18.000Z,6.6
2023-03-04T04:25:49.000Z,10.6
2023-03-04T04:27:19.000Z,9.9
2023-03-04T04:28:36.000Z,8.7
2023-03-04T04:29:53.000Z,10.5
2023-03-04T04:31:24.000Z,6.8
2023-03-04T04:32:54.000Z,8.8
2023-03-04T04:34:25.000Z,8
2023-03-04T04:35:55.000Z,7.7
2023-03-04T04:37:26.000Z,9.9
2023-03-04T04:38:56.000Z,5.6
2023-03-04T04:40:27.000Z,10.3
2023-03-04T04:41:57.000Z,11.9
2023-03-04T04:43:28.000Z,9.3
2023-03-04T04:44:45.000Z,10.1
2023-03-04T04:46:01.000Z,7.8
2023-03-04T04:47:32.000Z,8.4
2023-03-04T04:49:11.000Z,6.6
2023-03-04T04:50:41.000Z,7.8
2023-03-04T04:52:12.000Z,9.3
2023-03-04T04:53:42.000Z,10.3
2023-03-04T04:55:13.000Z,9.5
2023-03-04T04:56:43.000Z,6.1
2023-03-04T04:58:14.000Z,8
2023-03-04T04:59:44.000Z,7.8
2023-03-04T05:01:01.000Z,11
2023-03-04T05:02:18.000Z,7.1
2023-03-04T05:03:49.000Z,11.4
2023-03-04T05:05:19.000Z,7.3
2023-03-04T05:06:50.000Z,8.3
2023-03-04T05:08:20.000Z,12
2023-03-04T05:09:51.000Z,8.2
2023-03-04T05:11:21.000Z,8.1
2023-03-04T05:12:52.000Z,6.9
2023-03-04T05:14:22.000Z,7.1
2023-03-04T05:15:53.000Z,8.2
2023-03-04T05:17:10.000Z,7.4
2023-03-04T05:18:27.000Z,7.5
2023-03-04T05:19:57.000Z,8
2023-03-04T05:21:28.000Z,6.4
2023-03-04T05:22:58.000Z,6.1
2023-03-04T05:24:29.000Z,9.8
2023-03-04T05:25:59.000Z,9.9
2023-03-04T05:27:30.000Z,9
2023-03-04T05:29:00.000Z,7
2023-03-04T05:30:31.000Z,5
2023-03-04T05:32:01.000Z,5.2
2023-03-04T05:33:18.000Z,8.1
2023-03-04T05:34:35.000Z,5.2
2023-03-04T05:36:05.000Z,8.4
2023-03-04T05:37:36.000Z,7.7
2023-03-04T05:39:06.000Z,7.1
2023-03-04T05:40:37.000Z,5.6
2023-03-04T05:42:07.000Z,9
2023-03-04T05:43:38.000Z,11.6
2023-03-04T05:45:08.000Z,9.4
2023-03-04T05:46:39.000Z,7.8
2023-03-04T05:48:09.000Z,9.8
2023-03-04T05:49:26.000Z,7.8
2023-03-04T05:50:43.000Z,9.2
2023-03-04T05:52:14.000Z,9.3
2023-03-04T05:53:44.000Z,8.6
2023-03-04T05:55:15.000Z,6.4
2023-03-04T05:56:45.000Z,7.3
2023-03-04T05:58:16.000Z,7.9
2023-03-04T05:59:47.000Z,9.3
2023-03-04T06:01:17.000Z,6.8
2023-03-04T06:02:48.000Z,9.5
2023-03-04T06:04:18.000Z,5.3
2023-03-04T06:05:35.000Z,7.2
2023-03-04T06:06:52.000Z,9.2
2023-03-04T06:08:23.000Z,7.1
2023-03-04T06:09:53.000Z,7
2023-03-04T06:11:24.000Z,8.9
2023-03-04T06:12:54.000Z,7.4
2023-03-04T06:14:25.000Z,8.2
2023-03-04T06:15:55.000Z,6.9
2023-03-04T06:17:26.000Z,6.5
2023-03-04T06:18:56.000Z,9.1
2023-03-04T06:20:27.000Z,7.5
2023-03-04T06:21:44.000Z,6.6
2023-03-04T06:23:01.000Z,5.2
2023-03-04T06:24:31.000Z,4.6
2023-03-04T06:26:02.000Z,10.1
2023-03-04T06:27:32.000Z,9.3
2023-03-04T06:29:03.000Z,9
2023-03-04T06:30:33.000Z,7
2023-03-04T06:32:04.000Z,7.6
2023-03-04T06:33:34.000Z,10.7
2023-03-04T06:35:05.000Z,8.2
2023-03-04T06:36:35.000Z,8
2023-03-04T06:37:52.000Z,7.3
2023-03-04T06:39:09.000Z,7.1
2023-03-04T06:40:40.000Z,7.4
2023-03-04T06:42:10.000Z,5.8
2023-03-04T06:43:41.000Z,7.3
2023-03-04T06:45:11.000Z,6.4
2023-03-04T06:46:42.000Z,8.6
2023-03-04T06:48:12.000Z,9.3
2023-03-04T06:49:43.000Z,6.7
2023-03-04T06:51:13.000Z,9.2
2023-03-04T06:52:44.000Z,6.7
2023-03-04T06:54:01.000Z,8.9
2023-03-04T06:55:18.000Z,5.7
2023-03-04T06:56:48.000Z,6.8
2023-03-04T06:58:19.000Z,9.8
2023-03-04T06:59:49.000Z,7
2023-03-04T07:01:20.000Z,8.3
2023-03-04T07:02:50.000Z,7.3
2023-03-04T07:04:21.000Z,5.7
2023-03-04T07:05:51.000Z,7.2
2023-03-04T07:07:22.000Z,8
2023-03-04T07:08:52.000Z,4.3
2023-03-04T07:10:09.000Z,7.6
2023-03-04T07:11:26.000Z,8.8
2023-03-04T07:12:57.000Z,8
2023-03-04T07:14:27.000Z,9
2023-03-04T07:15:58.000Z,9.2
2023-03-04T07:17:28.000Z,7.6
2023-03-04T07:18:59.000Z,7.9
2023-03-04T07:20:29.000Z,7.9
2023-03-04T07:22:00.000Z,7.9
2023-03-04T07:23:30.000Z,8.4
2023-03-04T07:25:01.000Z,7.5
2023-03-04T07:26:18.000Z,4.6
2023-03-04T07:27:35.000Z,6.1
2023-03-04T07:29:05.000Z,4.4
2023-03-04T07:30:36.000Z,6.1
2023-03-04T07:32:06.000Z,5.2
2023-03-04T07:33:37.000Z,6.9
2023-03-04T07:35:07.000Z,5.7
2023-03-04T07:36:38.000Z,9.9
2023-03-04T07:38:08.000Z,7.2
2023-03-04T07:39:39.000Z,6.2
2023-03-04T07:41:09.000Z,5.7
2023-03-04T07:42:26.000Z,4.8
2023-03-04T07:43:43.000Z,6
2023-03-04T07:45:13.000Z,6.1
2023-03-04T07:46:44.000Z,6.5
2023-03-04T07:48:14.000Z,6.1
2023-03-04T07:49:45.000Z,7.1
2023-03-04T07:51:15.000Z,5.2
2023-03-04T07:52:46.000Z,7.7
2023-03-04T07:54:16.000Z,6
2023-03-04T07:55:47.000Z,6
2023-03-04T07:57:18.000Z,4.5
2023-03-04T07:58:34.000Z,7.3
2023-03-04T07:59:51.000Z,6.6
2023-03-04T08:01:22.000Z,5.9
2023-03-04T08:02:52.000Z,7.4
2023-03-04T08:04:23.000Z,7.4
2023-03-04T08:05:53.000Z,5.6
2023-03-04T08:07:24.000Z,13
2023-03-04T08:08:55.000Z,8
2023-03-04T08:10:25.000Z,5
2023-03-04T08:11:56.000Z,10.4
2023-03-04T08:13:26.000Z,7.3
2023-03-04T08:14:43.000Z,6.4
2023-03-04T08:16:00.000Z,6.4
2023-03-04T08:17:31.000Z,5.7
2023-03-04T08:19:01.000Z,7.2
2023-03-04T08:20:32.000Z,5
2023-03-04T08:22:02.000Z,4.9
2023-03-04T08:23:33.000Z,9.1
2023-03-04T08:25:03.000Z,9.6
2023-03-04T08:26:34.000Z,8.5
2023-03-04T08:28:04.000Z,5.2
2023-03-04T08:29:35.000Z,5.7
2023-03-04T08:30:52.000Z,5.3
2023-03-04T08:32:09.000Z,4.7
2023-03-04T08:33:39.000Z,4
2023-03-04T08:35:10.000Z,5.9
2023-03-04T08:36:40.000Z,7.6
2023-03-04T08:38:11.000Z,7.9
2023-03-04T08:39:41.000Z,8.1
2023-03-04T08:41:12.000Z,5.8
2023-03-04T08:42:42.000Z,6.7
2023-03-04T08:44:13.000Z,7.7
2023-03-04T08:45:43.000Z,4.6
2023-03-04T08:47:00.000Z,8.7
2023-03-04T08:48:17.000Z,8.6
2023-03-04T08:49:48.000Z,5.4
2023-03-04T08:51:18.000Z,5.3
2023-03-04T08:54:19.000Z,6.8
2023-03-04T08:55:50.000Z,4.6
2023-03-04T08:57:20.000Z,8
2023-03-04T08:58:51.000Z,6.7
2023-03-04T09:00:21.000Z,3.9
2023-03-04T09:01:52.000Z,6.8
2023-03-04T09:03:09.000Z,4.7
2023-03-04T09:04:26.000Z,6.1
2023-03-04T09:05:56.000Z,4.9
2023-03-04T09:07:27.000Z,8.2
2023-03-04T09:08:57.000Z,4.2
2023-03-04T09:10:28.000Z,6.8
2023-03-04T09:11:58.000Z,7.9
2023-03-04T09:13:29.000Z,5.4
2023-03-04T09:14:59.000Z,7.4
2023-03-04T09:16:30.000Z,5.4
2023-03-04T09:18:00.000Z,5.6
2023-03-04T09:19:17.000Z,6.2
2023-03-04T09:20:34.000Z,7.4
2023-03-04T09:22:05.000Z,5.2
2023-03-04T09:23:35.000Z,8.5
2023-03-04T09:26:36.000Z,5.7
2023-03-04T09:28:07.000Z,8.4
2023-03-04T09:29:37.000Z,5.2
2023-03-04T09:31:08.000Z,4.5
2023-03-04T09:32:38.000Z,6.2
2023-03-04T09:34:09.000Z,9.7
2023-03-04T09:35:25.000Z,7.4
2023-03-04T09:36:42.000Z,7.9
2023-03-04T09:39:43.000Z,6.4
2023-03-04T09:41:14.000Z,7.3
2023-03-04T09:42:44.000Z,5.8
2023-03-04T09:44:23.000Z,6.2
2023-03-04T09:47:24.000Z,5.8
2023-03-04T09:50:25.000Z,6.9
2023-03-04T09:51:42.000Z,5.4
2023-03-04T09:52:59.000Z,6.7
2023-03-04T09:54:30.000Z,5.4
2023-03-04T09:56:00.000Z,4.7
2023-03-04T09:57:31.000Z,3.8
2023-03-04T09:59:01.000Z,3.2
2023-03-04T10:00:32.000Z,6.5
2023-03-04T10:02:02.000Z,4.3
2023-03-04T10:03:33.000Z,3.8
2023-03-04T10:05:03.000Z,4.5
2023-03-04T10:06:34.000Z,3.4
2023-03-04T10:07:51.000Z,4.9
2023-03-04T10:10:38.000Z,3.1
2023-03-04T10:12:09.000Z,6
2023-03-04T10:13:39.000Z,3.9
2023-03-04T10:15:10.000Z,4.3
2023-03-04T10:16:40.000Z,6.9
2023-03-04T10:18:11.000Z,5.6
2023-03-04T10:19:41.000Z,4.2
2023-03-04T10:21:12.000Z,3.7
2023-03-04T10:22:42.000Z,5.2
2023-03-04T10:23:59.000Z,4.5
2023-03-04T10:25:16.000Z,2.3
2023-03-04T10:26:47.000Z,4.7
2023-03-04T10:28:17.000Z,3.6
2023-03-04T10:29:48.000Z,4
2023-03-04T10:31:18.000Z,5.3
2023-03-04T10:32:49.000Z,2.6
2023-03-04T10:34:19.000Z,3.5
2023-03-04T10:35:50.000Z,3
2023-03-04T10:37:20.000Z,4.1
2023-03-04T10:38:51.000Z,3.7
2023-03-04T10:40:08.000Z,2.5
2023-03-04T10:41:25.000Z,5.5
2023-03-04T10:42:55.000Z,3.2
2023-03-04T10:44:26.000Z,4
2023-03-04T10:45:56.000Z,3.4
2023-03-04T10:47:27.000Z,3.3
2023-03-04T10:48:57.000Z,2
2023-03-04T10:50:28.000Z,2.5
2023-03-04T10:51:58.000Z,3.9
2023-03-04T10:53:29.000Z,4
2023-03-04T10:54:59.000Z,5.2
2023-03-04T10:56:16.000Z,4.2
2023-03-04T10:57:33.000Z,6
2023-03-04T10:59:04.000Z,3.9
2023-03-04T11:00:34.000Z,6
2023-03-04T11:03:35.000Z,3.8
2023-03-04T11:05:06.000Z,3.2
2023-03-04T11:06:36.000Z,4.5
2023-03-04T11:08:07.000Z,4.4
2023-03-04T11:09:37.000Z,6.2
2023-03-04T11:11:08.000Z,4.9
2023-03-04T11:12:25.000Z,4.3
2023-03-04T11:13:42.000Z,3.3
2023-03-04T11:15:12.000Z,2.9
2023-03-04T11:16:43.000Z,4.5
2023-03-04T11:18:13.000Z,5.4
2023-03-04T11:19:44.000Z,6.4
2023-03-04T11:21:14.000Z,4.1
2023-03-04T11:22:45.000Z,2.9
2023-03-04T11:24:15.000Z,2.4
2023-03-04T11:25:46.000Z,2.7
2023-03-04T11:27:16.000Z,2.8
2023-03-04T11:28:33.000Z,2.9
2023-03-04T11:29:50.000Z,2.4
2023-03-04T11:31:21.000Z,3.7
2023-03-04T11:32:51.000Z,2.9
2023-03-04T11:34:22.000Z,2
2023-03-04T11:35:52.000Z,2.4
2023-03-04T11:37:23.000Z,2.7
2023-03-04T11:38:53.000Z,4
2023-03-04T11:40:24.000Z,6.9
2023-03-04T11:41:54.000Z,4.5
2023-03-04T11:43:25.000Z,7.3
2023-03-04T11:44:42.000Z,8.2
2023-03-04T11:45:59.000Z,7.3
2023-03-04T11:47:29.000Z,4.2
2023-03-04T11:49:00.000Z,7.7
2023-03-04T11:50:30.000Z,6.2
2023-03-04T11:52:01.000Z,5.2
2023-03-04T11:53:31.000Z,8.9
2023-03-04T11:55:02.000Z,8.8
2023-03-04T11:56:32.000Z,7.6
2023-03-04T11:58:03.000Z,12.9
2023-03-04T11:59:33.000Z,7.9
2023-03-04T12:00:50.000Z,7.3
2023-03-04T12:02:07.000Z,9.4
2023-03-04T12:03:38.000Z,7.8
2023-03-04T12:05:08.000Z,8.9
2023-03-04T12:06:39.000Z,5.6
2023-03-04T12:08:09.000Z,5.7
2023-03-04T12:09:40.000Z,5.1
2023-03-04T12:11:10.000Z,7.8
2023-03-04T12:12:41.000Z,7.1
2023-03-04T12:14:11.000Z,4.5
2023-03-04T12:15:42.000Z,8.5
2023-03-04T12:16:59.000Z,5.3
2023-03-04T12:18:16.000Z,6.6
2023-03-04T12:19:46.000Z,3.8
2023-03-04T12:21:17.480Z,6.6
2023-03-04T12:22:47.000Z,4.5
2023-03-04T12:24:18.000Z,6.4
2023-03-04T12:25:49.000Z,5.9
2023-03-04T12:27:19.000Z,5.9
2023-03-04T12:28:50.000Z,3.6
2023-03-04T12:30:20.000Z,4.9
2023-03-04T12:31:51.000Z,5.5
2023-03-04T12:33:08.000Z,3.4
2023-03-04T12:34:24.000Z,5.2
2023-03-04T12:35:55.000Z,5
2023-03-04T12:37:26.000Z,5.1
2023-03-04T12:38:56.000Z,4.7
2023-03-04T12:40:27.000Z,6.4
2023-03-04T12:41:57.000Z,4.6
2023-03-04T12:43:28.000Z,8.6
2023-03-04T12:44:58.000Z,4
2023-03-04T12:46:29.000Z,6.8
2023-03-04T12:47:59.000Z,4.1
2023-03-04T12:49:16.000Z,6.7
2023-03-04T12:50:33.000Z,4.7
2023-03-04T12:52:03.000Z,7.2
2023-03-04T12:53:34.000Z,7.1
2023-03-04T12:55:04.000Z,8.9
2023-03-04T12:56:35.000Z,11.1
2023-03-04T12:58:05.000Z,14.1
2023-03-04T12:59:36.000Z,9.2
2023-03-04T13:01:06.000Z,12.8
2023-03-04T13:02:37.000Z,7.1
2023-03-04T13:04:07.000Z,12.4
2023-03-04T13:05:24.000Z,7.7
2023-03-04T13:06:41.000Z,10.5
2023-03-04T13:08:12.000Z,9.1
2023-03-04T13:09:42.000Z,8.5
2023-03-04T13:11:13.000Z,8.5
2023-03-04T13:12:43.000Z,7.9
2023-03-04T13:14:14.000Z,6.4
2023-03-04T13:15:44.000Z,7.2
2023-03-04T13:17:15.000Z,6.3
2023-03-04T13:18:45.000Z,8
2023-03-04T13:20:16.000Z,6.2
2023-03-04T13:21:33.000Z,9.2
2023-03-04T13:22:50.000Z,8.3
2023-03-04T13:24:20.000Z,6.7
2023-03-04T13:25:51.000Z,6.2
2023-03-04T13:27:21.000Z,6.7
2023-03-04T13:28:52.000Z,6.1
2023-03-04T13:30:22.000Z,5.3
2023-03-04T13:31:53.000Z,4.7
2023-03-04T13:33:23.000Z,6.9
2023-03-04T13:34:54.000Z,6
2023-03-04T13:36:24.000Z,5.7
2023-03-04T13:37:41.000Z,7
2023-03-04T13:38:58.000Z,6
2023-03-04T13:40:29.000Z,5.4
2023-03-04T13:41:59.000Z,6
2023-03-04T13:43:30.000Z,6.3
2023-03-04T13:45:00.000Z,3.3
2023-03-04T13:46:31.000Z,4.4
2023-03-04T13:48:01.000Z,3.2
2023-03-04T13:49:32.000Z,5
2023-03-04T13:51:02.000Z,5.2
2023-03-04T13:52:33.000Z,4.3
2023-03-04T13:53:50.000Z,2.4
2023-03-04T13:55:07.000Z,5.5
2023-03-04T13:56:37.000Z,3.8
2023-03-04T13:58:08.000Z,3.3
2023-03-04T13:59:38.000Z,3.6
2023-03-04T14:01:09.000Z,3.5
2023-03-04T14:02:39.000Z,3.1
2023-03-04T14:04:10.000Z,4.1
2023-03-04T14:05:40.000Z,4.2
2023-03-04T14:07:11.000Z,4.4
2023-03-04T14:08:41.000Z,4
2023-03-04T14:09:58.000Z,2.7
2023-03-04T14:11:15.000Z,5.5
2023-03-04T14:12:45.000Z,3.1
2023-03-04T14:14:16.000Z,3.4
2023-03-04T14:15:46.000Z,2.9
2023-03-04T14:17:17.000Z,2.8
2023-03-04T14:18:47.000Z,3.4
2023-03-04T14:20:18.000Z,3.6
2023-03-04T14:21:49.000Z,3.7
2023-03-04T14:23:19.000Z,4.1
2023-03-04T14:24:50.000Z,3.7
2023-03-04T14:26:07.000Z,4.1
2023-03-04T14:27:23.000Z,4.9
2023-03-04T14:28:54.000Z,7.1
2023-03-04T14:30:25.000Z,6.1
2023-03-04T14:31:55.000Z,6.5
2023-03-04T14:33:26.000Z,4.5
2023-03-04T14:34:56.000Z,6.1
2023-03-04T14:36:27.000Z,4.8
2023-03-04T14:37:57.000Z,8.4
2023-03-04T14:39:28.000Z,6.2
2023-03-04T14:40:58.000Z,5.2
2023-03-04T14:42:15.000Z,3
2023-03-04T14:43:32.000Z,5.7
2023-03-04T14:45:03.000Z,5.7
2023-03-04T14:46:33.000Z,5.9
2023-03-04T14:48:04.000Z,3.3
2023-03-04T14:49:34.000Z,5.8
2023-03-04T14:51:05.000Z,5.3
2023-03-04T14:52:35.000Z,8.3
2023-03-04T14:54:06.000Z,4.8
2023-03-04T14:55:36.000Z,5.7
2023-03-04T14:57:07.000Z,5.3
2023-03-04T14:58:24.000Z,4.5
2023-03-04T14:59:40.000Z,3.3
2023-03-04T15:01:11.000Z,5.8
2023-03-04T15:02:41.000Z,5.7
2023-03-04T15:04:12.000Z,6.5
2023-03-04T15:05:42.000Z,5.8
2023-03-04T15:07:13.000Z,6.5
2023-03-04T15:08:43.000Z,4.1
2023-03-04T15:10:14.000Z,5.4
2023-03-04T15:11:44.000Z,8.2
2023-03-04T15:13:15.000Z,7.6
2023-03-04T15:14:32.000Z,3.5
2023-03-04T15:15:49.000Z,5.3
2023-03-04T15:17:19.000Z,5.4
2023-03-04T15:18:50.000Z,5.8
2023-03-04T15:20:20.000Z,5.9
2023-03-04T15:21:51.000Z,5.3
2023-03-04T15:23:21.000Z,2.9
2023-03-04T15:24:52.000Z,5.7
2023-03-04T15:26:22.000Z,5.5
2023-03-04T15:27:53.000Z,4.2
2023-03-04T15:29:23.000Z,5.6
2023-03-04T15:30:40.000Z,6
2023-03-04T15:31:57.000Z,5.6
2023-03-04T15:33:28.000Z,6.8
2023-03-04T15:34:58.000Z,5.1
2023-03-04T15:36:29.000Z,6.5
2023-03-04T15:37:59.000Z,22
2023-03-04T15:39:30.000Z,6.4
2023-03-04T15:41:00.000Z,5.6
2023-03-04T15:42:31.000Z,9.6
2023-03-04T15:44:01.000Z,9.3
2023-03-04T15:45:32.000Z,5.9
2023-03-04T15:46:49.000Z,6.2
2023-03-04T15:48:06.000Z,4.1
2023-03-04T15:49:36.000Z,8.7
2023-03-04T15:51:07.000Z,8
2023-03-04T15:52:37.000Z,4.6
2023-03-04T15:54:08.000Z,5.5
2023-03-04T15:55:38.000Z,9
2023-03-04T15:57:09.000Z,5.5
2023-03-04T16:00:10.000Z,8.4
2023-03-04T16:01:40.000Z,7.4
2023-03-04T16:02:57.000Z,7
2023-03-04T16:04:14.000Z,5.9
2023-03-04T16:05:44.000Z,5.2
2023-03-04T16:07:15.000Z,5.3
2023-03-04T16:08:46.000Z,6.1
2023-03-04T16:10:16.000Z,5.2
2023-03-04T16:11:47.000Z,5.7
2023-03-04T16:14:48.000Z,5.3
2023-03-04T16:16:18.000Z,6.2
2023-03-04T16:17:49.000Z,8
2023-03-04T16:19:06.000Z,7.1
2023-03-04T16:21:53.000Z,6
2023-03-04T16:23:24.000Z,5.9
2023-03-04T16:24:54.000Z,7.2
2023-03-04T16:26:25.000Z,8.7
2023-03-04T16:27:55.000Z,6.7
2023-03-04T16:29:26.000Z,6.7
2023-03-04T16:30:56.000Z,9.1
2023-03-04T16:32:27.000Z,13.8
2023-03-04T16:33:57.000Z,9.2
2023-03-04T16:35:14.000Z,13.6
2023-03-04T16:36:31.000Z,10.7
2023-03-04T16:38:02.000Z,9.4
2023-03-04T16:39:32.000Z,9.4
2023-03-04T16:41:03.000Z,13.1
2023-03-04T16:42:33.000Z,8.8
2023-03-04T16:44:04.000Z,10.1
2023-03-04T16:45:34.000Z,12.4
2023-03-04T16:47:05.000Z,11.6
2023-03-04T16:48:35.000Z,11.1
2023-03-04T16:50:06.000Z,11.9
2023-03-04T16:51:23.000Z,7.4
2023-03-04T16:52:40.000Z,10.4
2023-03-04T16:54:10.000Z,4.8
2023-03-04T16:55:41.000Z,9.6
2023-03-04T16:57:11.000Z,11.7
2023-03-04T17:00:12.000Z,12.2
2023-03-04T17:01:43.000Z,13.2
2023-03-04T17:03:13.000Z,7.5
2023-03-04T17:04:44.000Z,9.3
2023-03-04T17:06:14.000Z,5.5
2023-03-04T17:07:31.000Z,8.4
2023-03-04T17:08:48.000Z,9.7
2023-03-04T17:10:19.000Z,5
2023-03-04T17:11:49.000Z,6.9
2023-03-04T17:13:20.000Z,7.1
2023-03-04T17:14:50.000Z,8
2023-03-04T17:16:21.000Z,6.7
2023-03-04T17:17:51.000Z,7.7
2023-03-04T17:19:22.000Z,4.9
2023-03-04T17:20:52.000Z,7.2
2023-03-04T17:22:23.000Z,6.3
2023-03-04T17:23:40.000Z,9.7
2023-03-04T17:24:56.000Z,6.2
2023-03-04T17:27:57.000Z,7
2023-03-04T17:29:28.000Z,8.7
2023-03-04T17:30:58.000Z,5.9
2023-03-04T17:32:29.000Z,6.2
2023-03-04T17:33:59.000Z,7.3
2023-03-04T17:35:30.000Z,5.1
2023-03-04T17:37:00.000Z,7.3
2023-03-04T17:38:31.000Z,5.6
2023-03-04T17:39:48.000Z,7.5
2023-03-04T17:41:05.000Z,6.4
2023-03-04T17:42:35.000Z,8.8
2023-03-04T17:44:06.000Z,6.4
2023-03-04T17:45:36.000Z,7
2023-03-04T17:47:07.000Z,9.6
2023-03-04T17:48:37.000Z,5.7
2023-03-04T17:50:08.000Z,11.7
2023-03-04T17:51:38.000Z,7.2
2023-03-04T17:53:09.000Z,6.6
2023-03-04T17:54:39.000Z,6.3
2023-03-04T17:55:56.000Z,9.3
2023-03-04T17:57:13.000Z,9
2023-03-04T17:58:44.000Z,16.8
2023-03-04T18:00:14.000Z,8.9
2023-03-04T18:01:45.000Z,8.8
2023-03-04T18:03:15.000Z,7.1
2023-03-04T18:04:46.000Z,7.9
2023-03-04T18:06:16.000Z,11.5
2023-03-04T18:07:47.000Z,9.4
2023-03-04T18:09:17.000Z,10.1
2023-03-04T18:10:48.000Z,6.7
2023-03-04T18:12:05.000Z,6.8
2023-03-04T18:13:22.000Z,9.9
2023-03-04T18:14:52.000Z,6.1
2023-03-04T18:16:23.000Z,9.2
2023-03-04T18:17:53.000Z,7.7
2023-03-04T18:19:24.000Z,10.3
2023-03-04T18:20:54.000Z,8.2
2023-03-04T18:22:25.000Z,6
2023-03-04T18:23:56.000Z,6
2023-03-04T18:25:26.000Z,6.3
2023-03-04T18:26:57.000Z,9.2
2023-03-04T18:28:14.000Z,6.8
2023-03-04T18:29:30.000Z,6.9
2023-03-04T18:31:01.000Z,5.7
2023-03-04T18:32:32.000Z,6.6
2023-03-04T18:34:02.000Z,8
2023-03-04T18:35:33.000Z,7.7
2023-03-04T18:37:03.000Z,8.6
2023-03-04T18:38:34.000Z,9.3
2023-03-04T18:40:04.000Z,12.4
2023-03-04T18:41:35.000Z,9.5
2023-03-04T18:43:05.000Z,9.3
2023-03-04T18:44:22.000Z,8.9
2023-03-04T18:45:39.000Z,9
2023-03-04T18:47:10.000Z,10.3
2023-03-04T18:48:40.000Z,5.5
2023-03-04T18:51:41.000Z,9.2
2023-03-04T18:53:12.000Z,6.9
2023-03-04T18:54:42.000Z,6.4
2023-03-04T18:56:13.000Z,7.2
2023-03-04T18:57:43.000Z,6.2
2023-03-04T18:59:14.000Z,7.3
2023-03-04T19:00:31.000Z,6.6
2023-03-04T19:01:48.000Z,9.4
2023-03-04T19:03:18.000Z,6.5
2023-03-04T19:04:49.000Z,7.2
2023-03-04T19:06:19.000Z,8.9
2023-03-04T19:07:50.000Z,11.4
2023-03-04T19:09:20.000Z,6.9
2023-03-04T19:10:51.000Z,6.5
2023-03-04T19:12:21.000Z,6
2023-03-04T19:13:52.000Z,7.3
2023-03-04T19:15:22.000Z,8
2023-03-04T19:16:39.000Z,10
2023-03-04T19:17:56.000Z,6.1
2023-03-04T19:19:27.000Z,9.5
2023-03-04T19:20:57.000Z,4.9
2023-03-04T19:22:28.000Z,4.9
2023-03-04T19:23:58.000Z,5.3
2023-03-04T19:25:29.000Z,6.4
2023-03-04T19:26:59.000Z,7.8
2023-03-04T19:28:30.000Z,8.9
2023-03-04T19:30:00.000Z,9.9
2023-03-04T19:31:31.000Z,6.3
2023-03-04T19:32:47.000Z,6.9
2023-03-04T19:34:04.000Z,5.1
2023-03-04T19:35:35.000Z,6.6
2023-03-04T19:37:13.000Z,7
2023-03-04T19:38:44.000Z,6.4
2023-03-04T19:40:15.000Z,5.4
2023-03-04T19:41:45.000Z,9.8
2023-03-04T19:43:16.000Z,5.6
2023-03-04T19:44:46.000Z,9.5
2023-03-04T19:46:17.000Z,9.2
2023-03-04T19:47:47.000Z,8.3
2023-03-04T19:49:04.000Z,5.8
2023-03-04T19:50:21.000Z,5.9
2023-03-04T19:51:52.000Z,8.5
2023-03-04T19:53:22.000Z,6.6
2023-03-04T19:54:53.000Z,10.5
2023-03-04T19:56:23.000Z,6.5
2023-03-04T19:57:54.000Z,6.1
2023-03-04T19:59:24.000Z,7.1
2023-03-04T20:00:55.000Z,7.6
2023-03-04T20:02:25.000Z,5.3
2023-03-04T20:03:56.000Z,8.9
2023-03-04T20:05:13.000Z,6.2
2023-03-04T20:06:30.000Z,7.4
2023-03-04T20:08:00.000Z,5.1
2023-03-04T20:09:31.000Z,8
2023-03-04T20:11:01.000Z,8
2023-03-04T20:12:32.000Z,7.4
2023-03-04T20:14:02.000Z,7
2023-03-04T20:15:33.000Z,9
2023-03-04T20:17:03.000Z,7.3
2023-03-04T20:18:34.000Z,6
2023-03-04T20:20:04.000Z,6.4
2023-03-04T20:21:21.000Z,8.1
2023-03-04T20:22:38.000Z,6.7
2023-03-04T20:24:09.000Z,9
2023-03-04T20:25:39.000Z,5.3
2023-03-04T20:27:10.000Z,4.5
2023-03-04T20:28:40.000Z,6.6
2023-03-04T20:31:41.000Z,7.3
2023-03-04T20:33:12.000Z,5
2023-03-04T20:34:42.000Z,7.3